Latest Weather Observations for Oakey

IDQ60901

Issued at 11:31 pm EST Saturday 3 December 2016 (issued every 10 minutes, with the page automatically refreshed every 10 minutes)

About weather observations | Map of Brisbane area stations | Latest observations for Brisbane area | Other Formats
Station Details ID: 041359 Name: OAKEY AERO Lat: -27.40 Lon: 151.74 Height: 405.69 m
Data from the previous 72 hours. | See also: Recent months at Oakey
Date/Time
EST
Temp
°C
App
Temp
°C
Dew
Point
°C
Rel
Hum
%
Delta-T
°C
Wind Press
QNH
hPa
Press
MSL
hPa
Rain since
9am
mm
Dir  Spd
km/h
Gust
km/h
Spd
kts
Gust
kts
03/11:00pm 20.6 19.0 17.4 82 2.0 ENE 22 32 12 17 1017.3 1015.2 0.2
03/10:30pm 20.8 18.4 17.4 81 2.1 ENE 26 32 14 17 1017.4 1015.3 0.2
03/10:00pm 20.8 18.1 17.6 82 2.0 E 28 35 15 19 1017.5 1015.4 0.2
03/09:30pm 20.9 19.0 17.7 82 2.0 ENE 24 30 13 16 1017.7 1015.6 0.2
03/09:00pm 20.7 16.4 17.7 83 1.9 ENE 37 52 20 28 1017.3 1015.2 0.2
03/08:30pm 21.1 17.5 17.3 79 2.4 E 32 43 17 23 1016.8 1014.7 0.2
03/08:00pm 21.7 17.5 17.1 75 2.9 ENE 35 48 19 26 1015.6 1013.4 0.2
03/07:30pm 21.5 16.2 17.3 77 2.6 ENE 41 57 22 31 1015.4 1013.3 0.2
03/07:23pm 21.5 15.7 17.5 78 2.5 ENE 44 57 24 31 1015.1 1013.0 0.2
03/07:00pm 22.3 17.3 17.0 72 3.3 E 39 50 21 27 1013.1 1010.9 0.2
03/06:30pm 22.9 18.8 18.2 75 3.0 E 37 48 20 26 1011.9 1009.8 0.2
03/06:13pm 24.3 20.9 17.8 67 4.1 ESE 32 54 17 29 1012.6 1010.5 0.2
03/06:05pm 25.6 24.6 16.5 57 5.7 ENE 17 37 9 20 1012.4 1010.3 0.2
03/06:00pm 28.6 29.2 16.8 48 7.5 WNW 9 19 5 10 1012.0 1009.9 0.2
03/05:56pm 29.5 29.4 16.0 44 8.5 W 11 19 6 10 1011.6 1009.4 0.2
03/05:30pm 29.2 25.3 16.4 46 8.1 SW 32 52 17 28 1009.5 1007.3 0.2
03/05:28pm 30.4 25.9 14.9 39 9.6 SSW 32 52 17 28 1009.5 1007.3 0.2
03/05:11pm 25.9 19.6 17.0 58 5.6 SSW 46 65 25 35 1010.9 1008.7 0.2
03/05:00pm 25.5 19.1 15.8 55 6.0 SW 44 63 24 34 1010.9 1008.7 0.2
03/04:56pm 28.6 22.9 14.1 41 8.8 SW 37 61 20 33 1011.0 1008.8 0.0
03/04:50pm 33.3 29.5 11.2 26 13.1 NNW 22 61 12 33 1011.5 1009.3 0.0
03/04:48pm 35.5 33.4 13.6 26 13.6 N 17 26 9 14 1011.2 1009.0 0.0
03/04:30pm 36.3 32.9 11.2 22 15.1 NNW 20 28 11 15 1009.0 1006.8 0.0
03/04:00pm 37.6 34.7 12.9 23 15.3 NNW 20 30 11 16 1009.2 1007.0 0.0
03/03:30pm 37.2 32.6 11.2 21 15.7 NW 26 39 14 21 1009.5 1007.3 0.0
03/03:00pm 37.5 34.0 12.2 22 15.5 NW 22 37 12 20 1010.0 1007.9 0.0
03/02:30pm 37.6 34.1 12.3 22 15.5 NNW 22 32 12 17 1011.0 1008.8 0.0
03/02:00pm 37.5 34.2 12.8 22 15.3 N 22 39 12 21 1011.6 1009.4 0.0
03/01:30pm 36.5 36.8 15.0 27 13.7 N 7 15 4 8 1012.3 1010.2 0.0
03/01:00pm 36.0 34.5 14.1 27 13.7 NNW 15 26 8 14 1012.7 1010.6 0.0
03/12:30pm 35.0 34.6 15.3 30 12.5 NW 11 20 6 11 1013.3 1011.1 0.0
03/12:00pm 34.6 33.2 14.5 30 12.6 N 15 24 8 13 1013.8 1011.6 0.0
03/11:30am 34.5 33.2 15.9 33 11.9 N 17 28 9 15 1014.3 1012.2 0.0
03/11:00am 33.6 34.1 16.5 36 11.0 NNE 9 15 5 8 1014.6 1012.5 0.0
03/10:30am 32.2 33.7 19.8 48 8.3 E 11 17 6 9 1015.1 1013.0 0.0
03/10:00am 31.2 32.4 19.9 51 7.6 ENE 13 19 7 10 1015.4 1013.3 0.0
03/09:30am 30.1 30.6 19.2 52 7.2 NE 15 22 8 12 1015.9 1013.7 0.0
03/09:00am 29.7 29.8 19.1 53 7.0 NE 17 22 9 12 1016.0 1013.8 0.0
03/08:30am 29.1 29.3 19.4 55 6.4 NE 17 22 9 12 1015.9 1013.7 0.0
03/08:00am 27.8 27.2 18.8 58 5.9 NE 20 26 11 14 1015.8 1013.6 0.0
03/07:30am 26.8 26.9 19.9 66 4.6 ENE 19 22 10 12 1015.7 1013.5 0.0
03/07:00am 25.5 25.4 19.6 70 3.9 ENE 19 24 10 13 1015.4 1013.3 0.0
03/06:30am 24.5 24.6 20.4 78 2.7 ENE 20 24 11 13 1015.2 1013.1 0.0
03/06:00am 23.1 23.3 20.2 84 1.9 ENE 19 24 10 13 1015.0 1012.9 0.0
03/05:30am 21.9 22.5 20.2 90 1.1 E 17 22 9 12 1014.8 1012.7 0.0
03/05:00am 21.3 21.2 19.9 92 0.9 ENE 20 24 11 13 1014.3 1012.2 0.0
03/04:30am 21.4 20.9 19.9 91 1.0 ENE 22 26 12 14 1013.8 1011.6 0.0
03/04:00am 21.7 21.5 19.8 89 1.2 E 20 24 11 13 1013.5 1011.3 0.0
03/03:30am 22.0 21.8 19.7 87 1.5 E 20 24 11 13 1013.3 1011.1 0.0
03/03:00am 22.4 23.6 19.8 85 1.7 ENE 13 17 7 9 1013.0 1010.8 0.0
03/02:30am 22.7 23.5 19.9 84 1.8 ENE 15 17 8 9 1013.0 1010.8 0.0
03/02:00am 22.9 23.2 19.7 82 2.1 ENE 17 20 9 11 1012.7 1010.6 0.0
03/01:30am 23.1 23.4 19.7 81 2.2 E 17 20 9 11 1012.8 1010.7 0.0
03/01:00am 23.1 23.4 19.5 80 2.3 ENE 17 20 9 11 1013.2 1011.0 0.0
03/12:30am 23.5 23.4 19.6 79 2.5 E 19 24 10 13 1013.2 1011.0 0.0
03/12:00am 23.9 23.6 19.6 77 2.8 E 20 28 11 15 1013.5 1011.3 0.0
 
Date/Time
EST
Temp
°C
App
Temp
°C
Dew
Point
°C
Rel
Hum
%
Delta-T
°C
Wind Press
QNH
hPa
Press
MSL
hPa
Rain since
9am
mm
Dir  Spd
km/h
Gust
km/h
Spd
kts
Gust
kts
02/11:30pm 24.1 24.7 19.4 75 3.1 ENE 15 20 8 11 1013.5 1011.3 0.0
02/11:00pm 24.8 23.8 19.6 73 3.4 E 24 32 13 17 1013.6 1011.4 0.0
02/10:30pm 25.3 25.1 19.7 71 3.7 E 20 24 11 13 1013.7 1011.5 0.0
02/10:00pm 25.0 25.2 19.4 71 3.7 E 17 19 9 10 1013.8 1011.6 0.0
02/09:30pm 26.4 25.7 19.5 66 4.5 E 22 28 12 15 1013.8 1011.6 0.0
02/09:00pm 26.8 27.8 19.4 64 4.9 SE 13 17 7 9 1013.4 1011.2 0.0
02/08:30pm 27.3 26.7 18.9 60 5.5 E 20 24 11 13 1013.1 1010.9 0.0
02/08:00pm 27.2 26.0 16.2 51 6.9 E 17 20 9 11 1012.6 1010.5 0.0
02/07:30pm 27.7 25.6 11.3 36 9.5 S 13 15 7 8 1012.0 1009.9 0.0
02/07:00pm 29.8 27.9 10.4 30 11.2 S 11 13 6 7 1011.6 1009.4 0.0
02/06:30pm 32.3 29.5 8.5 23 13.5 SW 13 17 7 9 1011.2 1009.0 0.0
02/06:00pm 35.0 30.9 6.3 17 16.0 SSW 17 20 9 11 1010.8 1008.6 0.0
02/05:30pm 35.9 33.9 8.7 19 15.7 SSW 9 17 5 9 1010.4 1008.2 0.0
02/05:00pm 35.9 32.7 7.0 17 16.3 SW 13 20 7 11 1010.1 1008.0 0.0
02/04:30pm 36.8 32.3 6.9 16 16.9 SW 20 28 11 15 1009.9 1007.8 0.0
02/04:00pm 37.1 32.4 6.2 15 17.3 WSW 20 32 11 17 1009.8 1007.7 0.0
02/03:30pm 37.1 33.4 6.2 15 17.3 W 15 19 8 10 1009.8 1007.7 0.0
02/03:00pm 37.1 34.2 8.0 17 16.8 SSW 13 35 7 19 1010.0 1007.9 0.0
02/02:30pm 37.1 32.4 6.2 15 17.3 WSW 20 32 11 17 1010.2 1008.1 0.0
02/02:00pm 36.4 33.9 6.6 16 16.8 SW 9 28 5 15 1010.5 1008.3 0.0
02/01:30pm 36.5 33.1 9.2 19 16.0 WSW 17 26 9 14 1010.9 1008.7 0.0
02/01:00pm 35.2 31.7 7.3 18 15.8 W 15 24 8 13 1011.2 1009.0 0.0
02/12:30pm 34.6 32.7 9.1 21 14.8 SW 9 17 5 9 1011.6 1009.4 0.0
02/12:00pm 34.2 31.9 7.3 19 15.1 NW 9 19 5 10 1011.8 1009.6 0.0
02/11:30am 32.8 31.9 11.3 27 12.8 SSW 7 15 4 8 1012.2 1010.1 0.0
02/11:00am 32.2 30.6 10.3 26 12.8 WNW 9 15 5 8 1012.5 1010.4 0.0
02/10:30am 31.0 30.3 14.2 36 10.4 WSW 11 17 6 9 1012.7 1010.6 0.0
02/10:00am 30.0 29.4 14.5 38 9.6 WNW 11 15 6 8 1013.0 1010.8 0.0
02/09:30am 29.4 29.5 16.6 46 8.1 NW 11 19 6 10 1013.2 1011.0 0.0
02/09:00am 27.7 27.0 16.3 49 7.2 NW 15 22 8 12 1013.3 1011.1 0.0
02/08:30am 26.6 25.1 16.2 52 6.5 NW 19 28 10 15 1013.5 1011.3 0.0
02/08:00am 25.1 24.9 16.8 60 5.2 NNW 13 20 7 11 1013.7 1011.5 0.0
02/07:30am 23.9 24.3 16.4 63 4.7 NE 9 15 5 8 1013.7 1011.5 0.0
02/07:00am 22.6 23.3 17.1 71 3.4 E 9 13 5 7 1013.6 1011.4 0.0
02/06:30am 20.9 21.5 16.7 77 2.6 ENE 9 48 5 26 1013.4 1011.2 0.0
02/06:00am 19.8 19.9 16.4 81 2.1 E 11 11 6 6 1013.1 1010.9 0.0
02/05:30am 18.4 18.5 16.6 89 1.1 E 11 13 6 7 1012.7 1010.6 0.0
02/05:00am 16.8 16.1 15.3 91 0.9 E 13 17 7 9 1012.2 1010.1 0.0
02/04:30am 16.4 15.7 14.4 88 1.2 E 11 13 6 7 1012.1 1010.0 0.0
02/04:00am 17.3 16.9 15.1 87 1.3 ENE 11 15 6 8 1011.8 1009.6 0.0
02/03:30am 17.6 17.5 14.9 84 1.6 E 9 13 5 7 1011.3 1009.1 0.0
02/03:00am 17.9 17.1 15.0 83 1.7 E 13 17 7 9 1011.0 1008.8 0.0
02/02:30am 18.2 16.9 14.9 81 2.0 E 15 17 8 9 1011.0 1008.8 0.0
02/02:00am 18.6 17.3 14.9 79 2.2 E 15 19 8 10 1011.3 1009.1 0.0
02/01:30am 18.5 17.3 15.0 80 2.1 E 15 17 8 9 1011.3 1009.1 0.0
02/01:00am 19.2 18.3 14.9 76 2.6 E 13 15 7 8 1011.3 1009.1 0.0
02/12:30am 19.8 18.3 15.2 75 2.8 ENE 17 19 9 10 1011.4 1009.2 0.0
02/12:00am 20.3 18.9 15.5 74 2.9 ENE 17 19 9 10 1011.5 1009.3 0.0
 
Date/Time
EST
Temp
°C
App
Temp
°C
Dew
Point
°C
Rel
Hum
%
Delta-T
°C
Wind Press
QNH
hPa
Press
MSL
hPa
Rain since
9am
mm
Dir  Spd
km/h
Gust
km/h
Spd
kts
Gust
kts
01/11:30pm 20.7 18.7 15.5 72 3.1 ENE 20 30 11 16 1011.7 1009.5 0.0
01/11:00pm 21.1 19.3 15.6 71 3.3 ENE 19 22 10 12 1011.7 1009.5 0.0
01/10:30pm 21.5 18.6 15.1 67 3.9 ENE 24 30 13 16 1011.7 1009.5 0.0
01/10:00pm 22.0 19.0 14.9 64 4.3 ENE 24 32 13 17 1011.8 1009.6 0.0
01/09:30pm 22.6 19.1 14.4 60 4.9 ENE 26 37 14 20 1011.7 1009.5 0.0
01/09:00pm 22.9 20.5 14.5 59 5.0 E 20 28 11 15 1011.6 1009.4 0.0
01/08:30pm 23.4 20.8 14.9 59 5.1 ENE 22 30 12 16 1011.2 1009.0 0.0
01/08:00pm 23.9 20.2 15.1 58 5.4 ENE 28 33 15 18 1010.7 1008.5 0.0
01/07:30pm 24.6 20.6 15.2 55 5.7 E 30 39 16 21 1009.8 1007.7 0.0
01/07:00pm 25.8 22.6 14.3 49 7.0 ESE 24 32 13 17 1009.1 1006.9 0.0
01/06:30pm 29.6 29.6 9.7 29 11.4 CALM 0 0 0 0 1008.4 1006.2 0.0
01/06:00pm 31.6 30.3 9.8 26 12.6 WSW 7 9 4 5 1008.0 1005.8 0.0
01/05:30pm 32.3 29.7 9.2 24 13.3 WSW 13 17 7 9 1007.6 1005.5 0.0
01/05:00pm 32.1 27.8 7.7 22 13.7 W 20 28 11 15 1007.2 1005.0 0.0
01/04:30pm 30.2 23.1 9.7 28 11.7 WSW 37 59 20 32 1007.8 1005.6 0.0
01/04:26pm 29.1 21.9 9.3 29 11.2 WSW 37 65 20 35 1007.8 1005.6 0.0
01/04:13pm 30.1 18.2 8.5 26 12.1 WSW 61 87 33 47 1007.9 - -
01/04:09pm 32.1 24.1 4.0 17 14.8 W 35 93 19 50 1007.2 1005.0 0.0
01/04:07pm 32.7 26.2 8.2 22 13.9 W 32 76 17 41 1007.0 1004.8 0.0
01/04:06pm 32.9 26.8 8.4 22 13.9 W 30 43 16 23 1006.9 1004.7 0.0
01/04:00pm 33.0 27.0 8.5 22 14.0 WNW 30 41 16 22 1006.6 1004.4 0.0
01/03:30pm 34.7 30.0 9.2 21 14.8 WNW 24 39 13 21 1006.6 1004.4 0.0
01/03:00pm 35.3 30.3 11.0 23 14.6 WNW 28 46 15 25 1007.3 1005.1 0.0
01/02:30pm 34.6 29.3 11.1 24 14.0 WNW 30 39 16 21 1007.6 1005.5 0.0
01/02:00pm 32.5 27.3 11.6 28 12.5 WNW 30 41 16 22 1008.4 1006.2 0.0
01/01:45pm 33.6 29.1 12.6 28 12.8 NW 28 46 15 25 1008.6 1006.4 0.0
01/01:30pm 32.5 28.9 13.2 31 11.8 NW 24 30 13 16 1008.9 1006.7 0.0
01/01:00pm 33.0 30.3 14.6 33 11.5 NW 22 33 12 18 1009.5 1007.3 0.0
01/12:30pm 31.9 29.2 14.5 34 10.8 NNW 22 35 12 19 1009.9 1007.8 0.0
01/12:00pm 31.3 28.2 14.4 35 10.5 NW 24 33 13 18 1010.5 1008.3 0.0
01/11:30am 30.6 27.4 14.3 37 10.0 NW 24 33 13 18 1011.0 1008.8 0.0
01/11:00am 30.3 25.6 13.1 34 10.4 NW 30 41 16 22 1011.2 1009.0 0.0
01/10:30am 28.8 26.6 15.0 43 8.5 N 20 32 11 17 1011.5 1009.3 0.0
01/10:00am 28.2 25.6 14.8 44 8.3 N 22 32 12 17 1012.0 1009.9 0.0
01/09:30am 26.7 24.0 14.5 47 7.4 NNW 22 35 12 19 1012.5 1010.7 0.0
01/09:00am 25.9 23.8 15.3 52 6.5 N 20 30 11 16 1012.8 1011.0 0.0
01/08:30am 24.5 22.3 14.9 55 5.8 N 20 28 11 15 1013.4 1011.5 0.0
01/08:00am 23.5 21.1 15.3 60 5.0 N 22 28 12 15 1013.9 1012.0 0.0
01/07:30am 22.4 21.0 14.5 61 4.7 NW 15 19 8 10 1014.2 1012.4 0.0
01/07:00am 21.0 19.4 15.1 69 3.6 NNE 17 20 9 11 1013.3 1011.4 0.0
01/06:30am 19.6 17.5 15.3 76 2.6 NE 20 24 11 13 1013.1 1011.2 0.0
01/06:00am 18.6 17.0 14.9 79 2.2 NE 17 22 9 12 1012.6 1010.8 0.0
01/05:30am 17.8 16.8 14.7 82 1.8 ENE 13 17 7 9 1012.5 1010.7 0.0
01/05:00am 17.3 15.6 14.6 84 1.6 ENE 17 22 9 12 1012.2 1010.4 0.0
01/04:30am 17.2 15.5 14.7 85 1.5 NE 17 22 9 12 1012.0 1010.2 0.0
01/04:00am 16.7 16.3 14.0 84 1.6 NNE 9 11 5 6 1011.8 1009.9 0.0
01/03:30am 16.9 15.6 13.6 81 1.9 NE 13 17 7 9 1011.3 1009.4 0.0
01/03:00am 15.9 14.4 13.2 84 1.5 E 13 19 7 10 1010.8 1008.9 0.0
01/02:30am 16.4 14.6 13.3 82 1.8 E 15 19 8 10 1011.1 1009.2 0.0
01/02:00am 17.3 14.7 13.8 80 2.0 ENE 20 24 11 13 1011.0 1009.1 0.0
01/01:30am 17.0 15.5 14.1 83 1.7 ENE 15 17 8 9 1011.7 1009.8 0.0
01/01:00am 16.4 15.4 13.5 83 1.7 E 11 13 6 7 1011.8 1009.9 0.0
01/12:30am 16.6 16.1 13.9 84 1.6 E 9 11 5 6 1012.4 1010.6 0.0
01/12:00am 17.2 16.5 14.3 83 1.7 E 11 13 6 7 1012.7 1010.9 0.0

Latest Capital City Observations: Canberra | Sydney | Melbourne | Brisbane | Adelaide | Perth | Hobart | Darwin

Other Formats:

Comma delimited format used in spreadsheet applications
http://www.bom.gov.au/fwo/IDQ60901/IDQ60901.94552.axf

JavaScript Object Notation format (JSON) in row-major order
http://www.bom.gov.au/fwo/IDQ60901/IDQ60901.94552.json